Time;durP1;ratioP1;P1;durP2;ratioP2;P2;SDS_P1;SDS_P2;PMS_P1;PMS_P2;Temp;Humidity;BMP_temperature;BMP_pressure;BME280_temperature;BME280_humidity;BME280_pressure;Samples;Min_cycle;Max_cycle;Signal;HPM_P1;HPM_P2
2021/04/12 00:01:42;;;;;;;7.88;3.63;;;;;;;2.09;100.00;101718.22;5024208;28;20028;-69
2021/04/12 00:04:16;;;;;;;13.77;4.03;;;;;;;2.07;100.00;101726.19;5029649;28;20038;-70
2021/04/12 00:06:49;;;;;;;9.18;3.70;;;;;;;2.07;100.00;101715.59;5028229;28;20052;-70
2021/04/12 00:09:25;;;;;;;8.65;4.25;;;;;;;2.07;100.00;101723.53;5026836;28;20248;-70
2021/04/12 00:12:06;;;;;;;7.60;3.90;;;;;;;2.04;100.00;101731.50;5027821;28;20034;-70
2021/04/12 00:14:53;;;;;;;7.60;4.00;;;;;;;1.98;100.00;101728.94;5032505;28;20025;-70
2021/04/12 00:17:27;;;;;;;13.80;3.90;;;;;;;1.96;100.00;101730.75;5022378;28;20079;-70
2021/04/12 00:20:03;;;;;;;8.85;4.50;;;;;;;1.94;100.00;101737.81;5026422;28;20033;-70
2021/04/12 00:22:38;;;;;;;15.02;4.60;;;;;;;1.94;100.00;101737.81;5029705;28;20029;-70
2021/04/12 00:25:08;;;;;;;11.88;4.53;;;;;;;1.97;100.00;101735.16;5058517;28;20041;-70
2021/04/12 00:27:46;;;;;;;11.85;5.63;;;;;;;1.99;100.00;101728.91;5027300;28;20577;-70
2021/04/12 00:30:21;;;;;;;17.65;5.00;;;;;;;1.98;100.00;101731.59;5027625;28;20431;-70
2021/04/12 00:33:03;;;;;;;13.02;4.80;;;;;;;2.06;100.00;101735.00;5029088;28;20034;-70
2021/04/12 00:35:33;;;;;;;9.95;4.75;;;;;;;2.02;100.00;101743.91;5021648;28;20042;-70
2021/04/12 00:38:11;;;;;;;11.00;4.78;;;;;;;2.03;100.00;101735.06;5026135;28;20099;-70
2021/04/12 00:40:45;;;;;;;10.35;5.03;;;;;;;1.98;100.00;101739.53;5028339;28;20033;-69
2021/04/12 00:43:30;;;;;;;7.75;4.22;;;;;;;1.95;100.00;101742.22;5031548;28;20108;-70
2021/04/12 00:46:11;;;;;;;7.70;5.00;;;;;;;1.95;100.00;101737.81;5033807;28;20502;-71
2021/04/12 00:49:11;;;;;;;15.30;5.28;;;;;;;1.98;100.00;101742.16;5028853;28;20383;-70
2021/04/12 00:52:24;;;;;;;13.18;4.82;;;;;;;1.92;100.00;101739.59;5027625;28;20091;-70
2021/04/12 00:55:03;;;;;;;15.82;5.78;;;;;;;1.93;100.00;101738.72;5049649;28;20099;-71
2021/04/12 00:57:55;;;;;;;15.45;5.43;;;;;;;1.91;100.00;101740.53;5029359;28;20032;-70
2021/04/12 01:00:28;;;;;;;18.00;6.20;;;;;;;1.90;100.00;101744.94;5019457;28;20029;-70
2021/04/12 01:03:43;;;;;;;17.40;6.43;;;;;;;1.84;100.00;101738.84;5026695;28;20029;-70
2021/04/12 01:06:16;;;;;;;14.40;6.85;;;;;;;1.91;100.00;101745.81;5022430;28;20052;-69
2021/04/12 01:09:02;;;;;;;18.83;8.68;;;;;;;1.87;100.00;101744.09;5028337;28;20116;-70
2021/04/12 01:12:00;;;;;;;27.40;12.25;;;;;;;1.81;100.00;101745.03;5025453;28;20112;-70
2021/04/12 01:14:44;;;;;;;27.75;13.20;;;;;;;1.79;100.00;101744.16;5027385;28;20549;-69
2021/04/12 01:17:40;;;;;;;25.58;10.95;;;;;;;1.76;100.00;101746.00;5028371;28;20033;-70
2021/04/12 01:20:24;;;;;;;16.23;9.50;;;;;;;1.75;100.00;101761.00;5025613;28;20030;-69
2021/04/12 01:23:28;;;;;;;20.45;10.90;;;;;;;1.77;100.00;101759.22;5027372;28;20025;-70
2021/04/12 01:26:12;;;;;;;16.77;9.90;;;;;;;1.73;100.00;101769.88;5028774;28;20037;-70
2021/04/12 01:29:14;;;;;;;24.45;10.70;;;;;;;1.70;100.00;101767.22;5030372;28;20029;-70
2021/04/12 01:32:15;;;;;;;26.45;12.98;;;;;;;1.69;100.00;101778.72;5027250;28;20044;-70
2021/04/12 01:34:50;;;;;;;22.52;12.95;;;;;;;1.66;100.00;101786.69;5022549;28;20087;-70
2021/04/12 01:37:54;;;;;;;19.77;11.50;;;;;;;1.65;100.00;101784.94;5018129;28;20607;-70
2021/04/12 01:40:40;;;;;;;25.25;11.77;;;;;;;1.61;100.00;101784.97;5024054;28;20102;-71
2021/04/12 01:43:06;;;;;;;20.15;10.82;;;;;;;1.59;100.00;101791.19;5026917;28;20489;-70
2021/04/12 01:45:56;;;;;;;20.50;9.98;;;;;;;1.59;100.00;101792.06;5027806;28;20045;-70
2021/04/12 01:48:49;;;;;;;29.08;10.05;;;;;;;1.54;100.00;101793.84;5025107;28;20082;-70
2021/04/12 01:51:32;;;;;;;25.67;9.48;;;;;;;1.52;100.00;101800.94;5021627;28;20035;-70
2021/04/12 01:54:06;;;;;;;19.30;9.05;;;;;;;1.48;100.00;101796.56;5027509;28;20033;-70
2021/04/12 01:57:05;;;;;;;20.10;8.98;;;;;;;1.47;100.00;101800.13;5026120;28;20508;-70
2021/04/12 01:59:43;;;;;;;20.92;7.95;;;;;;;1.45;100.00;101801.91;5010864;28;20034;-70
2021/04/12 02:02:40;;;;;;;16.80;7.22;;;;;;;1.45;100.00;101803.66;5022391;28;20125;-70
2021/04/12 02:05:49;;;;;;;16.08;7.70;;;;;;;1.43;100.00;101800.13;5027093;28;20033;-70
2021/04/12 02:08:33;;;;;;;23.45;7.78;;;;;;;1.40;100.00;101810.78;5027526;28;20543;-70
2021/04/12 02:11:30;;;;;;;20.42;8.73;;;;;;;1.39;100.00;101801.06;5027857;28;20041;-70
2021/04/12 02:14:27;;;;;;;13.45;6.90;;;;;;;1.34;100.00;101806.41;5023179;28;20041;-70
2021/04/12 02:17:12;;;;;;;19.25;7.10;;;;;;;1.34;100.00;101816.13;5026849;28;20273;-70
2021/04/12 02:19:59;;;;;;;16.42;7.55;;;;;;;1.29;100.00;101818.81;5027088;28;20029;-70
2021/04/12 02:23:04;;;;;;;17.13;6.60;;;;;;;1.31;100.00;101811.72;5021471;28;20048;-70
2021/04/12 02:26:01;;;;;;;12.38;6.15;;;;;;;1.37;100.00;101818.72;5034227;28;20029;-70
2021/04/12 02:28:33;;;;;;;12.40;7.30;;;;;;;1.28;100.00;101826.75;5022466;28;20028;-70
2021/04/12 02:31:07;;;;;;;14.63;6.50;;;;;;;1.25;100.00;101822.34;5025414;28;20037;-70
2021/04/12 02:33:38;;;;;;;23.73;7.38;;;;;;;1.24;100.00;101825.88;5027668;28;20065;-70
2021/04/12 02:36:31;;;;;;;13.68;5.93;;;;;;;1.24;100.00;101820.59;5027453;28;20046;-70
2021/04/12 02:39:24;;;;;;;10.88;5.38;;;;;;;1.23;100.00;101824.16;5027596;28;20092;-70
2021/04/12 02:42:01;;;;;;;11.73;6.13;;;;;;;1.18;100.00;101832.09;5026237;28;20083;-70
2021/04/12 02:44:48;;;;;;;10.38;5.55;;;;;;;1.18;100.00;101831.22;5026680;28;20114;-71
2021/04/12 02:47:38;;;;;;;13.20;5.28;;;;;;;1.18;100.00;101844.44;5027128;28;20079;-70
2021/04/12 02:50:22;;;;;;;18.25;6.03;;;;;;;1.16;100.00;101848.88;5028268;28;20079;-70
2021/04/12 02:53:21;;;;;;;24.05;8.30;;;;;;;1.15;100.00;101849.78;5026557;28;20040;-70
2021/04/12 02:56:05;;;;;;;25.08;9.00;;;;;;;1.14;100.00;101840.06;5028156;28;20091;-70
2021/04/12 02:59:00;;;;;;;32.38;9.50;;;;;;;1.14;100.00;101851.53;5029167;28;20279;-70
2021/04/12 03:01:53;;;;;;;28.20;9.98;;;;;;;1.10;100.00;101860.38;5026178;28;20124;-70
2021/04/12 03:04:27;;;;;;;;;;;;;;;1.12;100.00;101858.59;5032435;28;20554;-70
2021/04/12 03:07:23;;;;;;;47.83;13.93;;;;;;;1.10;100.00;101856.88;5029260;28;19917;-70
2021/04/12 03:10:08;;;;;;;148.73;43.38;;;;;;;1.15;100.00;101857.69;5030644;28;20033;-70
2021/04/12 03:12:57;;;;;;;243.30;63.22;;;;;;;1.04;100.00;101849.84;5030385;28;20033;-70
2021/04/12 03:15:53;;;;;;;292.55;73.53;;;;;;;1.02;100.00;101850.75;5028377;28;20044;-70
2021/04/12 03:18:28;;;;;;;157.65;47.90;;;;;;;1.02;100.00;101861.31;5026705;28;20104;-68
2021/04/12 03:21:05;;;;;;;103.13;33.17;;;;;;;1.01;100.00;101860.44;5029232;28;20486;-68
2021/04/12 03:23:58;;;;;;;98.68;29.60;;;;;;;0.97;100.00;101864.00;5029445;28;20104;-68
2021/04/12 03:26:36;;;;;;;53.28;19.50;;;;;;;0.98;100.00;101863.13;5025857;28;20103;-68
2021/04/12 03:29:10;;;;;;;41.10;14.10;;;;;;;0.96;100.00;101856.97;5031978;28;20044;-68
2021/04/12 03:32:03;;;;;;;84.00;31.70;;;;;;;0.95;100.00;101859.59;5029517;28;20036;-68
2021/04/12 03:35:15;;;;;;;65.57;26.05;;;;;;;1.02;100.00;101856.03;5026978;28;20083;-68
2021/04/12 03:38:03;;;;;;;96.00;41.45;;;;;;;0.93;100.00;101862.25;5023459;28;20125;-68
2021/04/12 03:40:42;;;;;;;71.68;25.40;;;;;;;0.96;100.00;101866.66;5024488;28;20036;-68
2021/04/12 03:43:41;;;;;;;31.20;14.45;;;;;;;0.90;100.00;101867.56;5018978;28;20096;-68
2021/04/12 03:46:12;;;;;;;41.42;17.95;;;;;;;0.86;100.00;101863.19;5028298;28;20052;-68
2021/04/12 03:49:15;;;;;;;38.92;17.42;;;;;;;0.88;100.00;101871.97;5032556;28;20453;-70
2021/04/12 03:52:10;;;;;;;30.05;14.35;;;;;;;0.89;100.00;101875.50;5028887;28;20033;-71
2021/04/12 03:54:47;;;;;;;42.90;17.83;;;;;;;0.94;100.00;101879.00;5028841;28;20025;-68
2021/04/12 03:57:34;;;;;;;35.17;13.43;;;;;;;0.96;100.00;101879.88;5030336;28;20034;-68
2021/04/12 04:00:36;;;;;;;23.55;11.23;;;;;;;0.88;100.00;101882.56;5027232;28;20030;-71
2021/04/12 04:03:30;;;;;;;28.23;8.85;;;;;;;0.87;100.00;101877.25;5027986;28;20413;-68
2021/04/12 04:06:20;;;;;;;18.17;10.50;;;;;;;0.81;100.00;101886.13;5028356;28;20486;-71
2021/04/12 04:09:33;;;;;;;21.50;9.13;;;;;;;0.88;100.00;101879.91;5031192;28;20044;-70
2021/04/12 04:12:20;;;;;;;22.63;9.73;;;;;;;0.97;100.00;101879.88;4987077;28;20042;-70
2021/04/12 04:15:01;;;;;;;20.98;9.32;;;;;;;0.89;100.00;101886.06;5023495;28;20052;-70
2021/04/12 04:17:58;;;;;;;17.67;8.77;;;;;;;0.88;100.00;101884.31;5024479;28;20072;-70
2021/04/12 04:20:35;;;;;;;21.90;8.38;;;;;;;0.84;100.00;101887.88;5027775;28;20033;-70
2021/04/12 04:23:19;;;;;;;17.25;7.60;;;;;;;0.81;100.00;101889.63;5029879;28;20045;-70
2021/04/12 04:26:11;;;;;;;14.20;7.88;;;;;;;0.76;100.00;101891.44;5025175;28;20714;-70
2021/04/12 04:29:04;;;;;;;20.48;7.35;;;;;;;0.70;100.00;101894.09;5027768;28;20040;-70
2021/04/12 04:31:57;;;;;;;14.75;7.68;;;;;;;0.67;100.00;101890.63;5027203;28;20080;-70
2021/04/12 04:34:32;;;;;;;14.30;8.27;;;;;;;0.66;100.00;101895.03;5025241;28;20052;-70
2021/04/12 04:37:06;;;;;;;18.63;7.90;;;;;;;0.65;100.00;101895.03;5027028;28;20056;-70
2021/04/12 04:40:10;;;;;;;14.50;7.60;;;;;;;0.61;100.00;101896.81;5030416;28;20026;-70
2021/04/12 04:43:04;;;;;;;15.65;7.43;;;;;;;0.58;100.00;101899.44;5024244;28;20505;-70
2021/04/12 04:46:13;;;;;;;15.07;7.35;;;;;;;0.55;100.00;101899.47;5023289;28;20041;-71
2021/04/12 04:48:53;;;;;;;12.10;7.28;;;;;;;0.52;100.00;101911.81;5028443;28;20052;-70
2021/04/12 04:51:26;;;;;;;16.40;7.65;;;;;;;0.49;100.00;101912.72;5023451;28;20437;-70
2021/04/12 04:54:17;;;;;;;13.57;7.68;;;;;;;0.46;100.00;101910.06;5026256;28;20120;-70
2021/04/12 04:56:53;;;;;;;16.15;8.68;;;;;;;0.46;100.00;101918.00;5027632;28;20068;-70
2021/04/12 04:59:18;;;;;;;14.15;8.60;;;;;;;0.45;100.00;101926.81;5022371;28;20021;-70
2021/04/12 05:02:19;;;;;;;18.50;8.98;;;;;;;0.45;100.00;101925.91;5027338;28;20033;-70
2021/04/12 05:04:59;;;;;;;26.92;8.88;;;;;;;0.44;100.00;101929.44;5024487;28;20075;-70
2021/04/12 05:07:59;;;;;;;17.02;9.45;;;;;;;0.44;100.00;101932.97;5026684;28;20040;-70
2021/04/12 05:10:34;;;;;;;22.42;9.48;;;;;;;0.44;100.00;101932.97;5025457;28;20248;-70
2021/04/12 05:13:11;;;;;;;19.48;9.52;;;;;;;0.43;100.00;101923.31;5026885;28;20409;-70
2021/04/12 05:15:55;;;;;;;18.25;10.18;;;;;;;0.50;100.00;101937.34;5028695;28;20029;-70
2021/04/12 05:18:46;;;;;;;25.20;10.15;;;;;;;0.45;100.00;101940.00;5029747;28;20041;-70
2021/04/12 05:21:48;;;;;;;19.73;9.43;;;;;;;0.46;100.00;101944.41;5027133;28;20029;-70
2021/04/12 05:24:32;;;;;;;21.25;9.75;;;;;;;0.52;100.00;101954.97;5028865;28;20033;-70
2021/04/12 05:27:31;;;;;;;19.30;9.60;;;;;;;0.57;100.00;101953.16;5027985;28;20044;-70
2021/04/12 05:30:11;;;;;;;21.13;10.20;;;;;;;0.64;100.00;101959.31;5027146;28;20069;-70
2021/04/12 05:32:50;;;;;;;20.15;10.02;;;;;;;0.69;100.00;101958.41;5029154;28;20187;-69
2021/04/12 05:35:35;;;;;;;24.38;11.02;;;;;;;0.76;100.00;101960.16;5021840;28;20029;-70
2021/04/12 05:38:34;;;;;;;21.88;10.98;;;;;;;0.80;100.00;101961.03;5030554;28;20048;-70
2021/04/12 05:41:20;;;;;;;26.63;11.52;;;;;;;0.88;100.00;101960.97;5025170;28;20434;-70
2021/04/12 05:43:45;;;;;;;27.52;13.27;;;;;;;1.01;100.00;101970.59;5028446;28;20037;-70
2021/04/12 05:46:33;;;;;;;21.70;11.85;;;;;;;1.14;100.00;101974.94;5024198;28;20124;-70
2021/04/12 05:49:07;;;;;;;27.63;11.65;;;;;;;1.15;100.00;101979.34;5029105;28;20045;-70
2021/04/12 05:51:54;;;;;;;23.02;12.55;;;;;;;1.27;100.00;101978.38;5037396;28;20477;-70
2021/04/12 05:54:22;;;;;;;28.42;11.57;;;;;;;1.36;100.00;101978.34;5039492;28;20035;-70
2021/04/12 05:57:09;;;;;;;22.58;11.15;;;;;;;1.40;100.00;101980.06;5028587;28;20029;-69
2021/04/12 06:00:11;;;;;;;25.02;11.63;;;;;;;1.40;100.00;101988.88;5030448;28;20033;-70
2021/04/12 06:03:05;;;;;;;27.52;11.77;;;;;;;1.46;100.00;101986.22;5027238;28;20045;-70
2021/04/12 06:05:40;;;;;;;18.88;10.98;;;;;;;1.61;100.00;101991.38;5022859;28;20425;-70
2021/04/12 06:08:40;;;;;;;27.55;12.40;;;;;;;1.89;100.00;101996.47;5028076;28;20045;-70
2021/04/12 06:11:14;;;;;;;18.38;10.43;;;;;;;2.03;100.00;101995.47;5028043;28;20032;-69
2021/04/12 06:14:00;;;;;;;23.83;10.77;;;;;;;2.13;100.00;102005.97;5027135;28;20064;-70
2021/04/12 06:16:44;;;;;;;19.10;9.82;;;;;;;2.19;100.00;101996.19;5055408;28;20034;-71
2021/04/12 06:19:18;;;;;;;16.92;9.70;;;;;;;2.32;100.00;102013.72;5025070;28;20127;-71
2021/04/12 06:21:52;;;;;;;21.67;9.45;;;;;;;2.29;100.00;102016.38;5026740;28;20486;-70
2021/04/12 06:24:21;;;;;;;25.75;11.38;;;;;;;2.18;100.00;102020.91;5027140;28;20067;-70
2021/04/12 06:27:28;;;;;;;21.63;11.45;;;;;;;2.17;100.00;102024.44;5030294;28;20051;-71
2021/04/12 06:30:19;;;;;;;20.38;10.48;;;;;;;2.36;100.00;102031.34;5030133;28;20041;-70
2021/04/12 06:33:11;;;;;;;22.77;11.00;;;;;;;2.49;100.00;102031.22;5032081;28;20385;-70
2021/04/12 06:35:51;;;;;;;21.15;10.80;;;;;;;2.85;100.00;102031.69;5024347;28;20092;-71
2021/04/12 06:38:35;;;;;;;16.92;9.52;;;;;;;3.02;100.00;102033.28;5030472;28;20108;-71
2021/04/12 06:41:34;;;;;;;23.48;10.55;;;;;;;3.14;100.00;102041.97;5030750;28;20034;-71
2021/04/12 06:44:21;;;;;;;15.25;9.95;;;;;;;3.34;100.00;102041.69;5031228;28;20363;-71
2021/04/12 06:46:47;;;;;;;25.75;9.82;;;;;;;3.48;100.00;102041.50;5027800;28;20088;-70
2021/04/12 06:49:36;;;;;;;16.88;9.25;;;;;;;3.64;100.00;102046.56;5037243;28;20497;-70
2021/04/12 06:52:32;;;;;;;18.90;9.77;;;;;;;3.74;100.00;102049.97;5024674;28;20048;-70
2021/04/12 06:55:19;;;;;;;23.15;10.55;;;;;;;3.91;100.00;102050.59;5027526;28;20025;-70
2021/04/12 06:58:14;;;;;;;22.15;9.68;;;;;;;3.95;100.00;102052.28;5031742;28;20036;-70
2021/04/12 07:00:48;;;;;;;19.95;9.13;;;;;;;4.22;100.00;102063.38;5008606;28;20050;-70
2021/04/12 07:03:35;;;;;;;17.17;9.32;;;;;;;4.34;100.00;102071.13;5029675;28;20037;-70
2021/04/12 07:06:16;;;;;;;15.13;8.75;;;;;;;4.43;100.00;102071.00;5029824;28;20029;-70
2021/04/12 07:09:08;;;;;;;18.05;8.32;;;;;;;4.34;100.00;102084.44;5038399;28;20029;-70
2021/04/12 07:12:04;;;;;;;14.43;8.57;;;;;;;4.30;100.00;102082.75;5029729;28;20492;-70
2021/04/12 07:14:32;;;;;;;19.80;8.88;;;;;;;4.68;100.00;102080.28;5040386;28;20102;-70
2021/04/12 07:17:25;;;;;;;16.58;9.82;;;;;;;4.79;100.00;102083.63;5030631;28;20037;-70
2021/04/12 07:20:08;;;;;;;16.35;8.38;;;;;;;4.89;100.00;102074.56;5039000;28;20125;-70
2021/04/12 07:22:39;;;;;;;16.23;7.28;;;;;;;5.69;100.00;102082.63;5026312;28;20040;-70
2021/04/12 07:25:08;;;;;;;14.73;7.13;;;;;;;6.99;93.78;102085.59;5032753;28;20033;-70
2021/04/12 07:28:04;;;;;;;10.30;6.30;;;;;;;7.63;85.30;102087.31;5031314;28;20033;-70
2021/04/12 07:30:57;;;;;;;11.23;6.07;;;;;;;7.58;84.50;102083.91;5030768;28;20114;-71
2021/04/12 07:33:52;;;;;;;10.90;6.40;;;;;;;7.20;84.90;102093.03;5033523;28;20517;-70
2021/04/12 07:37:13;;;;;;;13.30;5.70;;;;;;;7.02;85.90;102093.53;5027298;28;20037;-71
2021/04/12 07:40:00;;;;;;;14.00;5.88;;;;;;;7.39;85.02;102098.72;5034125;28;20540;-70
2021/04/12 07:43:08;;;;;;;11.10;5.43;;;;;;;8.59;81.91;102100.25;5033901;28;20033;-71
2021/04/12 07:46:02;;;;;;;18.90;6.63;;;;;;;8.73;78.77;102106.03;5028213;28;20073;-70
2021/04/12 07:48:58;;;;;;;9.63;5.38;;;;;;;8.06;78.61;102113.56;5022812;28;20033;-71
2021/04/12 07:52:01;;;;;;;15.23;6.00;;;;;;;7.41;81.02;102106.66;5025128;28;20025;-70
2021/04/12 07:54:47;;;;;;;10.05;6.10;;;;;;;7.16;83.51;102110.03;5032535;28;20505;-71
2021/04/12 07:57:28;;;;;;;16.08;6.03;;;;;;;6.90;86.52;102116.13;5027584;28;20068;-71
2021/04/12 08:00:43;;;;;;;11.90;6.68;;;;;;;6.59;86.55;102119.63;5029657;28;20175;-71
2021/04/12 08:03:27;;;;;;;14.25;6.30;;;;;;;6.40;88.84;102125.41;5011381;28;20132;-70
2021/04/12 08:06:06;;;;;;;11.52;6.20;;;;;;;6.27;90.48;102129.28;5028657;28;20087;-72
2021/04/12 08:08:55;;;;;;;14.63;6.90;;;;;;;6.17;91.21;102127.78;5028352;28;20124;-71
2021/04/12 08:11:38;;;;;;;12.95;6.28;;;;;;;6.12;91.47;102132.31;5025821;28;20405;-71
2021/04/12 08:14:25;;;;;;;12.57;7.15;;;;;;;6.08;93.45;102133.31;5029425;28;20041;-70
2021/04/12 08:17:15;;;;;;;12.43;8.00;;;;;;;6.13;92.19;102135.84;5024175;28;20124;-71
2021/04/12 08:20:05;;;;;;;14.85;8.18;;;;;;;6.15;92.57;102140.25;5020285;28;22166;-71
2021/04/12 08:23:15;;;;;;;15.45;8.32;;;;;;;6.13;92.71;102142.06;5021760;28;20069;-71
2021/04/12 08:26:28;;;;;;;11.55;7.07;;;;;;;6.17;91.61;102143.78;5019284;28;20040;-72
2021/04/12 08:29:22;;;;;;;12.20;7.97;;;;;;;6.09;92.97;102151.06;5018888;28;20047;-71
2021/04/12 08:32:22;;;;;;;;;;;;;;;6.13;91.25;102158.06;5021347;28;20029;-71
2021/04/12 08:35:33;;;;;;;15.50;7.80;;;;;;;6.44;91.31;102159.09;5020528;28;19958;-71
2021/04/12 08:38:16;;;;;;;14.38;6.80;;;;;;;7.37;87.92;102153.97;5019665;28;20528;-71
2021/04/12 08:40:51;;;;;;;12.18;6.10;;;;;;;7.55;82.98;102155.25;5019501;28;20032;-71
2021/04/12 08:43:54;;;;;;;17.50;6.03;;;;;;;8.15;80.80;102165.03;5021160;28;20115;-71
2021/04/12 08:46:42;;;;;;;9.25;6.00;;;;;;;8.62;78.08;102166.19;5021489;28;20056;-71
2021/04/12 08:49:23;;;;;;;8.50;5.40;;;;;;;9.39;74.78;102160.78;5020581;28;20087;-71
2021/04/12 08:52:16;;;;;;;14.80;5.45;;;;;;;9.76;72.86;102165.66;5022752;28;20045;-71
2021/04/12 08:55:09;;;;;;;11.95;4.82;;;;;;;10.49;74.19;102163.66;5020830;28;20035;-71
2021/04/12 08:58:17;;;;;;;8.85;4.75;;;;;;;10.95;68.72;102161.75;5019135;28;20087;-71
2021/04/12 09:01:13;;;;;;;13.75;5.25;;;;;;;11.27;65.62;102169.28;5020839;28;20653;-72
2021/04/12 09:04:07;;;;;;;8.85;4.40;;;;;;;11.21;65.70;102174.94;5035197;28;20041;-69
2021/04/12 09:06:57;;;;;;;9.05;4.68;;;;;;;11.10;66.89;102169.16;5021539;28;20386;-69
2021/04/12 09:09:37;;;;;;;6.70;4.28;;;;;;;11.18;66.18;102158.94;5021929;28;20037;-71
2021/04/12 09:12:30;;;;;;;6.30;3.63;;;;;;;10.46;66.39;102161.13;5020785;28;20033;-69
2021/04/12 09:15:26;;;;;;;7.50;2.95;;;;;;;10.20;67.73;102163.97;5022993;28;20029;-71
2021/04/12 09:18:22;;;;;;;7.72;2.47;;;;;;;10.94;64.92;102166.25;5022870;28;20060;-72
2021/04/12 09:21:21;;;;;;;4.70;2.10;;;;;;;11.15;61.66;102164.44;5022289;28;20064;-72
2021/04/12 09:24:13;;;;;;;6.75;1.77;;;;;;;10.59;64.49;102163.31;5022927;28;20478;-72
2021/04/12 09:26:57;;;;;;;7.03;2.35;;;;;;;11.01;65.20;102166.84;5020515;28;20045;-72
2021/04/12 09:29:42;;;;;;;5.18;1.90;;;;;;;11.69;57.55;102166.47;5020384;28;20095;-72
2021/04/12 09:32:16;;;;;;;6.05;1.42;;;;;;;12.03;57.56;102164.94;5021072;28;20033;-69
2021/04/12 09:35:29;;;;;;;2.03;1.40;;;;;;;12.02;57.30;102150.63;5021945;28;20482;-69
2021/04/12 09:38:17;;;;;;;6.90;2.25;;;;;;;12.47;61.11;102160.97;5011436;28;20502;-72
2021/04/12 09:41:28;;;;;;;2.95;1.60;;;;;;;12.62;54.22;102163.84;5021637;28;20033;-72
2021/04/12 09:44:20;;;;;;;4.38;1.50;;;;;;;12.80;57.56;102166.50;5018045;28;20152;-71
2021/04/12 09:46:54;;;;;;;6.18;1.75;;;;;;;12.35;55.57;102161.56;5020255;28;20171;-72
2021/04/12 09:49:42;;;;;;;4.55;1.38;;;;;;;11.68;53.97;102153.09;5021757;28;20215;-70
2021/04/12 09:52:35;;;;;;;3.63;1.40;;;;;;;11.24;56.21;102163.16;5020606;28;20084;-73
2021/04/12 09:55:28;;;;;;;2.67;1.30;;;;;;;10.44;55.83;102168.34;5019938;28;20037;-70
2021/04/12 09:58:15;;;;;;;6.17;1.43;;;;;;;10.21;61.00;102167.53;5020277;28;20037;-69
2021/04/12 10:00:43;;;;;;;4.05;1.63;;;;;;;9.47;64.37;102169.44;5022440;28;20033;-72
2021/04/12 10:03:24;;;;;;;5.68;1.70;;;;;;;9.28;66.29;102165.66;5025017;28;20153;-69
2021/04/12 10:06:17;;;;;;;5.13;1.50;;;;;;;9.23;66.81;102167.66;5026185;28;20194;-72
2021/04/12 10:09:01;;;;;;;4.40;1.98;;;;;;;9.12;69.01;102168.03;5013150;28;20057;-72
2021/04/12 10:11:56;;;;;;;6.18;1.85;;;;;;;9.12;69.31;102177.88;5006070;28;20079;-72
2021/04/12 10:14:31;;;;;;;3.92;2.05;;;;;;;9.29;72.08;102175.47;5007210;28;20131;-69
2021/04/12 10:17:08;;;;;;;4.15;1.70;;;;;;;9.91;69.21;102174.94;5012438;28;20053;-70
2021/04/12 10:19:47;;;;;;;6.53;1.73;;;;;;;10.43;65.88;102174.66;5022610;28;20029;-69
2021/04/12 10:22:14;;;;;;;2.67;1.52;;;;;;;10.08;64.09;102178.72;5024577;28;20722;-69
2021/04/12 10:24:58;;;;;;;7.68;1.80;;;;;;;10.14;60.99;102185.66;5024737;28;20418;-69
2021/04/12 10:27:46;;;;;;;9.48;1.40;;;;;;;10.62;62.03;102180.16;5024150;28;20041;-72
2021/04/12 10:30:16;;;;;;;1.63;1.00;;;;;;;10.43;58.89;102180.03;5023025;28;20029;-72
2021/04/12 10:32:52;;;;;;;5.68;1.65;;;;;;;9.73;61.68;102189.94;5022354;28;20030;-70
2021/04/12 10:35:20;;;;;;;4.63;1.67;;;;;;;9.03;66.96;102205.84;5023170;28;20482;-72
2021/04/12 10:38:08;;;;;;;2.28;1.20;;;;;;;8.06;70.23;102208.97;5039613;28;20037;-73
2021/04/12 10:40:46;;;;;;;3.58;1.13;;;;;;;7.41;74.05;102208.19;5023434;28;20033;-72
2021/04/12 10:43:28;;;;;;;9.10;1.60;;;;;;;6.64;75.64;102203.09;5022798;28;20037;-73
2021/04/12 10:46:03;;;;;;;5.28;1.70;;;;;;;6.22;77.50;102205.84;5038817;28;20040;-73
2021/04/12 10:48:45;;;;;;;5.07;2.80;;;;;;;5.99;80.04;102213.47;5024124;28;20102;-73
2021/04/12 10:51:44;;;;;;;3.83;1.60;;;;;;;6.01;81.95;102206.31;5025324;28;20553;-72
2021/04/12 10:54:27;;;;;;;4.80;1.95;;;;;;;6.06;83.35;102210.63;5026518;28;20068;-72
2021/04/12 10:56:57;;;;;;;5.15;1.83;;;;;;;6.43;83.66;102205.34;5024243;28;20493;-72
2021/04/12 10:59:53;;;;;;;2.95;1.83;;;;;;;6.36;82.33;102211.72;5027485;28;20037;-72
2021/04/12 11:02:37;;;;;;;8.50;2.13;;;;;;;6.33;84.89;102210.94;5054681;28;20045;-71
2021/04/12 11:05:08;;;;;;;7.88;2.10;;;;;;;6.25;85.48;102211.09;5022236;28;20378;-71
2021/04/12 11:07:39;;;;;;;6.45;1.95;;;;;;;6.45;86.05;102208.88;5021819;28;20117;-71
2021/04/12 11:10:13;;;;;;;6.68;2.45;;;;;;;6.87;86.86;102214.06;5023249;28;20030;-71
2021/04/12 11:12:48;;;;;;;6.00;1.98;;;;;;;6.96;85.90;102200.50;5023834;28;20032;-71
2021/04/12 11:15:18;;;;;;;2.75;1.88;;;;;;;6.83;83.73;102209.72;5022024;28;20080;-71
2021/04/12 11:18:24;;;;;;;4.90;2.05;;;;;;;6.75;85.78;102209.03;5022218;28;20049;-72
2021/04/12 11:21:06;;;;;;;5.22;2.10;;;;;;;7.01;85.00;102203.91;5023650;28;20034;-71
2021/04/12 11:24:20;;;;;;;8.02;2.20;;;;;;;7.20;86.28;102205.19;5022857;28;20351;-71
2021/04/12 11:27:07;;;;;;;3.83;2.38;;;;;;;7.57;85.99;102201.50;5021381;28;20394;-71
2021/04/12 11:29:36;;;;;;;4.22;2.08;;;;;;;7.78;79.94;102198.19;5022863;28;20030;-71
2021/04/12 11:32:01;;;;;;;4.05;2.38;;;;;;;8.00;84.02;102198.47;5022786;28;20371;-72
2021/04/12 11:34:36;;;;;;;5.13;2.30;;;;;;;7.96;77.51;102210.19;5022640;28;20060;-71
2021/04/12 11:37:01;;;;;;;5.22;2.33;;;;;;;7.82;76.90;102210.59;5022705;28;20033;-71
2021/04/12 11:39:34;;;;;;;6.10;3.05;;;;;;;7.71;81.27;102207.34;5023406;28;20037;-71
2021/04/12 11:42:12;;;;;;;7.22;2.55;;;;;;;7.39;81.01;102204.69;5023007;28;20041;-72
2021/04/12 11:45:24;;;;;;;11.15;2.83;;;;;;;7.18;81.65;102201.69;5021468;28;20087;-72
2021/04/12 11:48:11;;;;;;;9.40;2.85;;;;;;;7.26;84.16;102205.03;5022202;28;20060;-72
2021/04/12 11:51:05;;;;;;;8.85;3.35;;;;;;;7.25;83.50;102203.28;5021103;28;20070;-72
2021/04/12 11:53:49;;;;;;;5.82;3.63;;;;;;;7.21;85.70;102217.63;5023243;28;20029;-72
2021/04/12 11:56:36;;;;;;;5.65;3.20;;;;;;;7.32;87.53;102241.38;5020825;28;20462;-72
2021/04/12 11:59:26;;;;;;;7.68;3.80;;;;;;;7.30;87.45;102245.88;5024011;28;20363;-72
2021/04/12 12:02:15;;;;;;;6.18;3.45;;;;;;;7.21;86.73;102244.34;5029586;28;20040;-73
2021/04/12 12:05:19;;;;;;;6.03;2.20;;;;;;;6.74;81.26;102247.31;5026651;28;20037;-72
2021/04/12 12:07:58;;;;;;;5.88;1.60;;;;;;;6.60;80.77;102247.66;5022535;28;20055;-71
2021/04/12 12:10:40;;;;;;;7.25;2.53;;;;;;;6.65;82.37;102242.19;5027493;28;20029;-72
2021/04/12 12:13:13;;;;;;;6.13;2.10;;;;;;;6.92;82.20;102252.19;5027883;28;20052;-72
2021/04/12 12:16:02;;;;;;;7.70;1.98;;;;;;;7.20;85.06;102253.25;5029082;28;20029;-71
2021/04/12 12:18:31;;;;;;;5.95;1.98;;;;;;;6.86;85.04;102269.25;5018063;28;20045;-73
2021/04/12 12:21:18;;;;;;;4.03;1.83;;;;;;;6.58;87.19;102272.59;5028974;28;20116;-72
2021/04/12 12:23:55;;;;;;;2.88;1.65;;;;;;;6.69;86.06;102266.09;5031880;28;20065;-71
2021/04/12 12:26:42;;;;;;;9.38;2.92;;;;;;;6.61;90.02;102272.50;5034659;28;20040;-72
2021/04/12 12:29:15;;;;;;;5.65;2.42;;;;;;;6.91;93.25;102271.81;5033806;28;20132;-72
2021/04/12 12:31:52;;;;;;;4.85;3.20;;;;;;;6.99;94.33;102277.81;5013663;28;20478;-72
2021/04/12 12:34:30;;;;;;;10.18;3.50;;;;;;;7.08;98.26;102285.63;5031392;28;20037;-72
2021/04/12 12:37:01;;;;;;;4.13;2.42;;;;;;;7.04;97.70;102277.69;5029672;28;20108;-71
2021/04/12 12:39:40;;;;;;;6.95;3.67;;;;;;;7.22;97.37;102287.94;5035038;28;20116;-72
2021/04/12 12:42:30;;;;;;;7.60;4.07;;;;;;;7.18;95.94;102286.25;5030203;28;20133;-73
2021/04/12 12:45:04;;;;;;;5.18;3.35;;;;;;;7.25;96.08;102280.72;5032892;28;20025;-72
2021/04/12 12:47:32;;;;;;;4.32;2.97;;;;;;;7.30;90.08;102284.16;5028412;28;20428;-72
2021/04/12 12:50:02;;;;;;;7.35;2.92;;;;;;;7.35;89.91;102277.81;5028259;28;20038;-72